Main page
METAR-TAF:

METAR-TAF

Airports :

Gillespie County Airport

Fredericksburg, Texas, United States

latitude: 30-14-37N, longitude: 098-54-34W, elevation: 1696 ft

Current weather observation

The report was made 13 minutes ago, at 05:35 UTC
Calm wind
Temperature 45°F
Humidity 76%
Pressure 29.78 in. Hg
Visibility: 10 miles
Clear sky

METAR: KT82 150535Z AUTO 00000KT 10SM CLR 07/03 A2978 RMK AO2 T00730029

Time: 23:48 (05:48 UTC)


TAF: missing

Weather observations and forecasts of more than 4000 airports (METAR and TAF reports).

The available stations are represented by yellow and red dots on the map.

Hover mouse over dot to see the name of the station.

Then click to see weather observations and forecasts.

To change the map : click on the green buttons with a black cross to zoom in, on the green button with a dash to zoom out, or on the green arrows for adjacent maps.


METAR-TAF: